createdAt,value
2022-11-05T00:00:13.042Z,81.83
2022-11-05T00:02:58.144Z,81.98
2022-11-05T00:05:40.677Z,81.88
2022-11-05T00:08:23.468Z,82.63
2022-11-05T00:10:53.828Z,82.66
2022-11-05T00:13:36.361Z,82.51
2022-11-05T00:16:19.043Z,82.47
2022-11-05T00:19:06.775Z,82.60
2022-11-05T00:21:51.000Z,82.75
2022-11-05T00:24:33.505Z,82.68
2022-11-05T00:27:03.627Z,83.07
2022-11-05T00:29:33.749Z,83.40
2022-11-05T00:32:03.954Z,83.05
2022-11-05T00:34:36.708Z,83.29
2022-11-05T00:37:06.798Z,83.27
2022-11-05T00:39:37.065Z,83.57
2022-11-05T00:42:19.918Z,83.37
2022-11-05T00:45:03.679Z,83.57
2022-11-05T00:47:54.591Z,83.92
2022-11-05T00:50:27.729Z,83.81
2022-11-05T00:53:00.624Z,83.75
2022-11-05T00:55:35.869Z,83.97
2022-11-05T00:58:07.522Z,83.67
2022-11-05T01:00:39.342Z,83.84
2022-11-05T01:03:11.867Z,83.91
2022-11-05T01:05:46.676Z,83.98
2022-11-05T01:08:18.466Z,84.33
2022-11-05T01:10:51.996Z,84.41
2022-11-05T01:13:24.135Z,84.60
2022-11-05T01:15:54.493Z,84.25
2022-11-05T01:18:26.374Z,84.51
2022-11-05T01:20:59.110Z,84.40
2022-11-05T01:23:29.311Z,84.42
2022-11-05T01:26:01.615Z,84.23
2022-11-05T01:28:31.697Z,84.36
2022-11-05T01:31:01.921Z,84.62
2022-11-05T01:33:31.979Z,84.85
2022-11-05T01:36:04.799Z,84.59
2022-11-05T01:38:34.851Z,84.80
2022-11-05T01:41:05.012Z,84.62
2022-11-05T01:43:49.796Z,84.80
2022-11-05T01:46:22.742Z,85.08
2022-11-05T01:49:02.736Z,84.83
2022-11-05T01:51:36.213Z,85.01
2022-11-05T01:54:11.765Z,85.05
2022-11-05T01:56:46.475Z,84.88
2022-11-05T01:59:22.044Z,85.19
2022-11-05T02:01:53.255Z,85.13
2022-11-05T02:04:35.731Z,84.94
2022-11-05T02:07:12.563Z,85.29
2022-11-05T02:09:50.844Z,85.28
2022-11-05T02:12:22.665Z,85.00
2022-11-05T02:14:52.940Z,84.81
2022-11-05T02:17:32.697Z,85.20
2022-11-05T02:20:27.300Z,85.02
2022-11-05T02:23:25.534Z,84.81
2022-11-05T02:26:25.555Z,85.08
2022-11-05T02:29:24.263Z,85.15
2022-11-05T02:32:04.195Z,84.99
2022-11-05T02:34:45.223Z,85.01
2022-11-05T02:37:24.440Z,85.06
2022-11-05T02:40:06.225Z,85.50
2022-11-05T02:42:45.827Z,85.22
2022-11-05T02:45:29.083Z,85.38
2022-11-05T02:48:10.553Z,85.41
2022-11-05T02:50:49.330Z,85.71
2022-11-05T02:53:28.508Z,85.41
2022-11-05T02:56:04.246Z,85.20
2022-11-05T02:58:37.097Z,85.67
2022-11-05T03:01:07.223Z,85.35
2022-11-05T03:03:43.356Z,85.75
2022-11-05T03:06:29.113Z,85.45
2022-11-05T03:09:15.043Z,85.74
2022-11-05T03:11:54.207Z,85.69
2022-11-05T03:14:32.099Z,85.84
2022-11-05T03:17:09.499Z,85.66
2022-11-05T03:19:50.861Z,85.89
2022-11-05T03:22:27.061Z,85.49
2022-11-05T03:25:01.275Z,85.29
2022-11-05T03:27:34.811Z,85.56
2022-11-05T03:30:10.819Z,84.72
2022-11-05T03:32:45.131Z,84.58
2022-11-05T03:35:22.338Z,84.73
2022-11-05T03:37:59.216Z,84.54
2022-11-05T03:40:32.431Z,84.71
2022-11-05T03:43:06.730Z,84.80
2022-11-05T03:45:41.189Z,85.01
2022-11-05T03:48:14.536Z,84.68
2022-11-05T03:50:54.119Z,84.14
2022-11-05T03:53:28.611Z,84.27
2022-11-05T03:56:04.197Z,84.37
2022-11-05T03:58:37.239Z,83.91
2022-11-05T04:01:08.030Z,84.24
2022-11-05T04:03:38.946Z,84.08
2022-11-05T04:06:25.915Z,84.21
2022-11-05T04:09:08.372Z,84.37
2022-11-05T04:11:51.297Z,84.18
2022-11-05T04:14:21.654Z,84.11
2022-11-05T04:17:04.096Z,83.68
2022-11-05T04:19:46.624Z,83.61
2022-11-05T04:22:31.711Z,83.48
2022-11-05T04:25:01.759Z,83.46
2022-11-05T04:27:31.993Z,83.56
2022-11-05T04:30:14.932Z,83.25
2022-11-05T04:32:45.230Z,83.75
2022-11-05T04:35:15.284Z,83.34
2022-11-05T04:37:47.929Z,83.74
2022-11-05T04:40:18.122Z,83.62
2022-11-05T04:42:48.347Z,83.76
2022-11-05T04:45:18.549Z,83.59
2022-11-05T04:47:48.668Z,83.62
2022-11-05T04:50:19.077Z,83.65
2022-11-05T04:52:51.863Z,83.80
2022-11-05T04:55:22.139Z,83.57
2022-11-05T04:57:53.010Z,83.87
2022-11-05T05:00:24.890Z,83.79
2022-11-05T05:02:55.165Z,83.93
2022-11-05T05:05:25.374Z,83.67
2022-11-05T05:07:58.065Z,83.88
2022-11-05T05:10:28.210Z,84.14
2022-11-05T05:12:58.544Z,84.32
2022-11-05T05:15:28.618Z,84.01
2022-11-05T05:17:59.784Z,84.29
2022-11-05T05:20:42.375Z,84.07
2022-11-05T05:23:15.015Z,83.87
2022-11-05T05:25:45.124Z,83.97
2022-11-05T05:28:15.164Z,84.51
2022-11-05T05:30:45.326Z,84.37
2022-11-05T05:33:15.465Z,84.64
2022-11-05T05:35:45.551Z,84.88
2022-11-05T05:38:18.204Z,84.91
2022-11-05T05:40:48.422Z,84.41
2022-11-05T05:43:18.669Z,84.38
2022-11-05T05:45:48.822Z,84.51
2022-11-05T05:48:18.954Z,84.76
2022-11-05T05:50:49.046Z,84.98
2022-11-05T05:53:21.905Z,84.20
2022-11-05T05:55:51.916Z,84.13
2022-11-05T05:58:22.064Z,83.58
2022-11-05T06:00:52.275Z,83.81
2022-11-05T06:03:22.693Z,83.84
2022-11-05T06:05:53.975Z,83.76
2022-11-05T06:08:26.710Z,83.83
2022-11-05T06:10:56.876Z,84.00
2022-11-05T06:13:27.060Z,83.41
2022-11-05T06:16:02.340Z,83.36
2022-11-05T06:18:33.251Z,83.83
2022-11-05T06:21:05.072Z,83.29
2022-11-05T06:23:39.981Z,83.24
2022-11-05T06:26:11.730Z,82.93
2022-11-05T06:28:42.573Z,83.65
2022-11-05T06:31:13.533Z,83.52
2022-11-05T06:33:44.166Z,84.28
2022-11-05T06:36:17.955Z,83.41
2022-11-05T06:38:50.440Z,83.72
2022-11-05T06:41:20.815Z,83.68
2022-11-05T06:43:50.955Z,84.25
2022-11-05T06:46:21.298Z,84.25
2022-11-05T06:48:51.500Z,84.65
2022-11-05T06:51:21.683Z,84.44
2022-11-05T06:53:54.439Z,84.18
2022-11-05T06:56:24.721Z,83.75
2022-11-05T06:58:54.772Z,84.07
2022-11-05T07:01:25.292Z,83.67
2022-11-05T07:03:55.634Z,83.46
2022-11-05T07:06:25.641Z,83.29
2022-11-05T07:08:58.288Z,83.68
2022-11-05T07:11:29.374Z,83.75
2022-11-05T07:14:01.255Z,83.12
2022-11-05T07:16:34.431Z,83.31
2022-11-05T07:19:04.953Z,83.39
2022-11-05T07:21:35.115Z,83.34
2022-11-05T07:24:09.416Z,83.44
2022-11-05T07:26:39.521Z,83.36
2022-11-05T07:29:10.138Z,82.98
2022-11-05T07:31:40.354Z,83.35
2022-11-05T07:34:10.598Z,83.08
2022-11-05T07:36:41.619Z,83.31
2022-11-05T07:39:14.442Z,83.31
2022-11-05T07:41:44.605Z,83.45
2022-11-05T07:44:14.667Z,83.23
2022-11-05T07:46:44.812Z,83.95
2022-11-05T07:49:14.887Z,84.02
2022-11-05T07:51:45.510Z,83.92
2022-11-05T07:54:18.540Z,83.68
2022-11-05T07:56:49.879Z,83.79
2022-11-05T07:59:23.082Z,83.95
2022-11-05T08:01:53.410Z,83.99
2022-11-05T08:04:23.868Z,83.90
2022-11-05T08:06:53.934Z,84.16
2022-11-05T08:09:26.699Z,84.30
2022-11-05T08:12:02.594Z,83.96
2022-11-05T08:14:33.367Z,84.36
2022-11-05T08:17:03.401Z,84.44
2022-11-05T08:19:33.467Z,84.51
2022-11-05T08:22:03.566Z,84.42
2022-11-05T08:24:36.194Z,84.04
2022-11-05T08:27:06.507Z,84.68
2022-11-05T08:29:37.732Z,84.08
2022-11-05T08:32:09.192Z,84.62
2022-11-05T08:34:42.009Z,84.41
2022-11-05T08:37:12.132Z,84.02
2022-11-05T08:39:45.126Z,84.59
2022-11-05T08:42:15.401Z,84.35
2022-11-05T08:44:45.401Z,83.99
2022-11-05T08:47:15.518Z,83.72
2022-11-05T08:49:45.539Z,83.88
2022-11-05T08:52:15.618Z,83.76
2022-11-05T08:54:48.277Z,84.09
2022-11-05T08:57:18.373Z,84.09
2022-11-05T08:59:48.572Z,83.70
2022-11-05T09:02:18.788Z,84.28
2022-11-05T09:04:48.916Z,84.23
2022-11-05T09:07:18.964Z,83.71
2022-11-05T09:09:51.784Z,84.29
2022-11-05T09:12:21.879Z,83.71
2022-11-05T09:14:51.952Z,84.11
2022-11-05T09:17:24.359Z,84.00
2022-11-05T09:19:54.923Z,84.17
2022-11-05T09:22:25.047Z,84.08
2022-11-05T09:24:57.716Z,83.77
2022-11-05T09:27:27.791Z,83.70
2022-11-05T09:29:58.027Z,84.43
2022-11-05T09:32:28.197Z,83.97
2022-11-05T09:35:00.430Z,83.21
2022-11-05T09:37:30.624Z,83.34
2022-11-05T09:40:04.585Z,83.24
2022-11-05T09:42:40.760Z,83.59
2022-11-05T09:45:16.572Z,83.95
2022-11-05T09:47:51.027Z,83.83
2022-11-05T09:50:29.456Z,83.41
2022-11-05T09:52:59.709Z,83.46
2022-11-05T09:55:36.445Z,82.80
2022-11-05T09:58:13.905Z,83.38
2022-11-05T10:00:44.764Z,83.25
2022-11-05T10:03:19.047Z,83.37
2022-11-05T10:05:51.496Z,83.31
2022-11-05T10:08:25.538Z,83.91
2022-11-05T10:11:03.390Z,83.60
2022-11-05T10:13:42.992Z,83.49
2022-11-05T10:16:24.744Z,83.80
2022-11-05T10:18:57.892Z,83.57
2022-11-05T10:21:59.510Z,83.78
2022-11-05T10:24:20.508Z,83.49
2022-11-05T10:26:55.969Z,83.69
2022-11-05T10:29:30.171Z,83.76
2022-11-05T10:32:02.765Z,83.48
2022-11-05T10:34:36.256Z,83.62
2022-11-05T10:37:07.086Z,83.44
2022-11-05T10:39:38.169Z,83.35
2022-11-05T10:42:37.680Z,82.95
2022-11-05T10:45:17.334Z,83.34
2022-11-05T10:47:54.794Z,83.36
2022-11-05T10:50:28.307Z,83.27
2022-11-05T10:53:01.805Z,83.14
2022-11-05T10:55:34.967Z,83.77
2022-11-05T10:58:22.700Z,82.79
2022-11-05T11:01:13.300Z,82.81
2022-11-05T11:03:47.389Z,82.87
2022-11-05T11:06:30.372Z,83.34
2022-11-05T11:09:10.885Z,83.17
2022-11-05T11:11:42.844Z,83.51
2022-11-05T11:14:24.210Z,82.95
2022-11-05T11:16:57.533Z,83.11
2022-11-05T11:19:31.118Z,83.67
2022-11-05T11:22:21.665Z,83.64
2022-11-05T11:24:54.213Z,83.97
2022-11-05T11:27:36.994Z,83.91
2022-11-05T11:30:18.392Z,85.00
2022-11-05T11:32:50.687Z,84.45
2022-11-05T11:35:27.022Z,84.32
2022-11-05T11:38:01.148Z,84.46
2022-11-05T11:40:34.724Z,84.62
2022-11-05T11:43:15.788Z,84.69
2022-11-05T11:45:52.384Z,84.95
2022-11-05T11:48:26.502Z,84.74
2022-11-05T11:50:56.791Z,84.56
2022-11-05T11:53:36.351Z,85.00
2022-11-05T11:56:18.386Z,84.87
2022-11-05T11:58:50.774Z,84.42
2022-11-05T12:01:47.131Z,84.66
2022-11-05T12:04:31.505Z,84.60
2022-11-05T12:07:19.467Z,84.64
2022-11-05T12:10:04.418Z,84.37
2022-11-05T12:12:44.826Z,84.22
2022-11-05T12:15:30.603Z,84.13
2022-11-05T12:18:08.747Z,84.45
2022-11-05T12:20:58.543Z,84.76
2022-11-05T12:23:46.208Z,84.80
2022-11-05T12:26:29.590Z,84.57
2022-11-05T12:29:19.302Z,84.94
2022-11-05T12:32:02.946Z,84.96
2022-11-05T12:34:51.345Z,85.00
2022-11-05T12:37:31.747Z,84.87
2022-11-05T12:40:36.340Z,85.04
2022-11-05T12:43:16.551Z,85.08
2022-11-05T12:45:52.879Z,84.54
2022-11-05T12:48:57.778Z,84.17
2022-11-05T12:51:40.629Z,84.22
2022-11-05T12:54:23.322Z,84.03
2022-11-05T12:56:56.970Z,84.28
2022-11-05T12:59:30.974Z,84.63
2022-11-05T13:02:09.320Z,84.47
2022-11-05T13:04:44.973Z,84.64
2022-11-05T13:07:22.893Z,84.56
2022-11-05T13:09:57.267Z,85.06
2022-11-05T13:12:30.474Z,83.47
2022-11-05T13:15:07.235Z,83.83
2022-11-05T13:17:43.913Z,83.83
2022-11-05T13:20:22.060Z,84.43
2022-11-05T13:23:00.853Z,84.08
2022-11-05T13:25:34.357Z,84.48
2022-11-05T13:28:13.477Z,84.34
2022-11-05T13:30:46.920Z,84.87
2022-11-05T13:33:22.659Z,84.50
2022-11-05T13:36:18.016Z,84.77
2022-11-05T13:39:00.237Z,84.86
2022-11-05T13:41:40.694Z,84.52
2022-11-05T13:44:31.059Z,84.74
2022-11-05T13:47:31.265Z,84.95
2022-11-05T13:50:27.462Z,84.82
2022-11-05T13:53:11.178Z,84.92
2022-11-05T13:55:59.158Z,84.96
2022-11-05T13:58:59.438Z,84.42
2022-11-05T14:01:48.070Z,84.52
2022-11-05T14:04:30.038Z,85.18
2022-11-05T14:07:11.541Z,84.83
2022-11-05T14:09:43.228Z,84.67
2022-11-05T14:12:24.442Z,85.04
2022-11-05T14:15:02.730Z,84.86
2022-11-05T14:17:56.547Z,84.78
2022-11-05T14:20:56.635Z,84.94
2022-11-05T14:23:52.037Z,85.24
2022-11-05T14:26:25.680Z,85.35
2022-11-05T14:29:31.139Z,85.24
2022-11-05T14:32:09.510Z,85.07
2022-11-05T14:34:47.224Z,85.08
2022-11-05T14:37:40.928Z,85.16
2022-11-05T14:40:32.236Z,84.83
2022-11-05T14:43:05.815Z,84.90
2022-11-05T14:45:39.363Z,84.76
2022-11-05T14:48:30.242Z,85.22
2022-11-05T14:51:02.474Z,85.22
2022-11-05T14:53:36.618Z,84.67
2022-11-05T14:56:12.386Z,85.07
2022-11-05T14:58:43.866Z,85.24
2022-11-05T15:01:57.408Z,85.17
2022-11-05T15:04:32.958Z,85.22
2022-11-05T15:07:34.868Z,85.40
2022-11-05T15:10:11.037Z,85.42
2022-11-05T15:12:47.990Z,85.40
2022-11-05T15:15:24.566Z,85.48
2022-11-05T15:18:05.845Z,85.72
2022-11-05T15:20:44.351Z,85.84
2022-11-05T15:23:18.624Z,85.52
2022-11-05T15:25:54.733Z,85.85
2022-11-05T15:28:32.195Z,85.91
2022-11-05T15:31:07.177Z,86.07
2022-11-05T15:33:39.155Z,85.87
2022-11-05T15:36:32.655Z,85.58
2022-11-05T15:39:27.942Z,85.88
2022-11-05T15:41:53.910Z,85.94
2022-11-05T15:44:33.320Z,86.00
2022-11-05T15:47:19.560Z,85.91
2022-11-05T15:49:52.027Z,85.46
2022-11-05T15:52:27.453Z,85.50
2022-11-05T15:55:20.165Z,85.45
2022-11-05T15:57:52.840Z,85.64
2022-11-05T16:00:28.743Z,85.24
2022-11-05T16:03:03.201Z,85.72
2022-11-05T16:05:36.997Z,85.52
2022-11-05T16:08:20.080Z,85.50
2022-11-05T16:10:53.408Z,85.43
2022-11-05T16:13:28.736Z,85.89
2022-11-05T16:16:01.489Z,86.04
2022-11-05T16:18:37.827Z,86.03
2022-11-05T16:21:10.503Z,86.04
2022-11-05T16:23:48.870Z,85.41
2022-11-05T16:27:01.986Z,85.71
2022-11-05T16:29:35.233Z,85.16
2022-11-05T16:32:08.467Z,84.73
2022-11-05T16:34:42.859Z,84.47
2022-11-05T16:37:17.776Z,84.16
2022-11-05T16:39:51.407Z,83.36
2022-11-05T16:42:37.158Z,83.17
2022-11-05T16:45:09.785Z,83.23
2022-11-05T16:47:40.623Z,83.47
2022-11-05T16:50:23.836Z,83.58
2022-11-05T16:52:55.452Z,83.79
2022-11-05T16:55:28.963Z,83.59
2022-11-05T16:57:59.959Z,83.38
2022-11-05T17:00:30.680Z,83.35
2022-11-05T17:03:01.192Z,82.14
2022-11-05T17:05:33.908Z,81.94
2022-11-05T17:08:04.245Z,80.57
2022-11-05T17:10:38.551Z,78.98
2022-11-05T17:13:09.040Z,80.14
2022-11-05T17:15:40.421Z,80.53
2022-11-05T17:18:18.146Z,80.56
2022-11-05T17:20:51.190Z,80.60
2022-11-05T17:23:23.673Z,81.03
2022-11-05T17:25:58.576Z,80.99
2022-11-05T17:28:29.239Z,81.04
2022-11-05T17:31:01.919Z,80.63
2022-11-05T17:33:33.075Z,81.06
2022-11-05T17:36:09.190Z,81.49
2022-11-05T17:38:39.801Z,81.28
2022-11-05T17:41:18.709Z,81.13
2022-11-05T17:43:49.468Z,81.20
2022-11-05T17:46:20.488Z,81.24
2022-11-05T17:48:50.886Z,80.50
2022-11-05T17:51:22.538Z,80.49
2022-11-05T17:53:54.209Z,80.16
2022-11-05T17:56:33.850Z,80.12
2022-11-05T17:59:05.467Z,79.79
2022-11-05T18:01:43.348Z,79.08
2022-11-05T18:04:14.536Z,79.92
2022-11-05T18:06:44.869Z,78.57
2022-11-05T18:09:15.611Z,78.43
2022-11-05T18:11:48.632Z,78.57
2022-11-05T18:14:23.861Z,77.70
2022-11-05T18:16:55.535Z,78.12
2022-11-05T18:19:25.974Z,77.89
2022-11-05T18:21:57.379Z,78.26
2022-11-05T18:24:28.089Z,78.15
2022-11-05T18:27:01.081Z,77.88
2022-11-05T18:29:33.280Z,77.73
2022-11-05T18:32:05.263Z,77.71
2022-11-05T18:34:38.307Z,77.34
2022-11-05T18:37:09.288Z,78.07
2022-11-05T18:39:39.791Z,78.79
2022-11-05T18:42:14.115Z,78.41
2022-11-05T18:44:44.536Z,78.73
2022-11-05T18:47:16.502Z,79.12
2022-11-05T18:49:46.979Z,79.89
2022-11-05T18:52:17.426Z,80.02
2022-11-05T18:54:47.857Z,80.12
2022-11-05T18:57:21.338Z,80.33
2022-11-05T18:59:53.022Z,80.47
2022-11-05T19:02:23.908Z,79.79
2022-11-05T19:05:22.533Z,78.87
2022-11-05T19:07:44.894Z,78.92
2022-11-05T19:10:16.392Z,79.49
2022-11-05T19:12:50.396Z,79.57
2022-11-05T19:15:21.362Z,80.03
2022-11-05T19:17:51.930Z,80.03
2022-11-05T19:20:22.630Z,79.99
2022-11-05T19:22:53.362Z,79.95
2022-11-05T19:25:26.565Z,79.95
2022-11-05T19:28:01.908Z,79.11
2022-11-05T19:30:32.485Z,78.23
2022-11-05T19:33:02.785Z,78.55
2022-11-05T19:35:38.348Z,78.66
2022-11-05T19:38:11.825Z,78.91
2022-11-05T19:40:42.473Z,79.60
2022-11-05T19:43:15.464Z,79.75
2022-11-05T19:45:45.941Z,79.91
2022-11-05T19:48:19.715Z,80.16
2022-11-05T19:50:50.605Z,79.94
2022-11-05T19:53:21.077Z,79.98
2022-11-05T19:55:51.676Z,80.47
2022-11-05T19:58:24.753Z,80.53
2022-11-05T20:00:58.126Z,80.94
2022-11-05T20:03:28.528Z,80.91
2022-11-05T20:06:03.709Z,81.51
2022-11-05T20:08:43.496Z,81.58
2022-11-05T20:11:24.655Z,81.66
2022-11-05T20:13:57.789Z,81.93
2022-11-05T20:16:29.465Z,81.29
2022-11-05T20:19:00.989Z,79.67
2022-11-05T20:21:31.415Z,79.56
2022-11-05T20:24:01.738Z,78.66
2022-11-05T20:26:32.919Z,78.15
2022-11-05T20:29:06.274Z,78.54
2022-11-05T20:31:36.619Z,79.16
2022-11-05T20:34:07.227Z,79.57
2022-11-05T20:36:37.525Z,80.13
2022-11-05T20:39:08.196Z,80.54
2022-11-05T20:41:39.187Z,80.58
2022-11-05T20:44:12.724Z,81.10
2022-11-05T20:46:43.077Z,81.32
2022-11-05T20:49:13.506Z,81.01
2022-11-05T20:51:43.800Z,80.99
2022-11-05T20:54:14.199Z,80.52
2022-11-05T20:56:45.499Z,80.87
2022-11-05T20:59:18.451Z,81.07
2022-11-05T21:01:48.918Z,80.42
2022-11-05T21:04:19.403Z,80.12
2022-11-05T21:06:49.737Z,80.62
2022-11-05T21:09:20.284Z,80.69
2022-11-05T21:12:03.254Z,81.23
2022-11-05T21:14:36.176Z,81.33
2022-11-05T21:17:10.530Z,81.59
2022-11-05T21:19:41.608Z,81.43
2022-11-05T21:22:15.232Z,82.15
2022-11-05T21:24:46.103Z,81.83
2022-11-05T21:27:16.424Z,81.79
2022-11-05T21:29:49.351Z,81.86
2022-11-05T21:32:19.711Z,81.76
2022-11-05T21:34:50.001Z,81.34
2022-11-05T21:37:20.512Z,81.35
2022-11-05T21:39:51.327Z,81.61
2022-11-05T21:42:21.587Z,81.40
2022-11-05T21:45:00.054Z,81.30
2022-11-05T21:47:31.784Z,81.37
2022-11-05T21:50:02.446Z,81.46
2022-11-05T21:52:44.924Z,81.23
2022-11-05T21:55:28.044Z,81.22
2022-11-05T21:58:10.773Z,81.25
2022-11-05T22:00:43.762Z,81.18
2022-11-05T22:03:13.812Z,81.53
2022-11-05T22:05:44.027Z,81.31
2022-11-05T22:08:14.699Z,81.12
2022-11-05T22:10:45.061Z,81.38
2022-11-05T22:13:15.220Z,81.48
2022-11-05T22:15:57.475Z,81.52
2022-11-05T22:18:27.798Z,81.82
2022-11-05T22:20:58.149Z,81.66
2022-11-05T22:23:28.235Z,81.33
2022-11-05T22:26:02.630Z,81.70
2022-11-05T22:28:32.676Z,81.76
2022-11-05T22:31:05.374Z,81.46
2022-11-05T22:33:35.422Z,81.48
2022-11-05T22:36:06.775Z,81.44
2022-11-05T22:38:37.032Z,81.49
2022-11-05T22:41:10.880Z,81.61
2022-11-05T22:43:41.269Z,81.12
2022-11-05T22:46:14.439Z,81.71
2022-11-05T22:48:44.837Z,81.75
2022-11-05T22:51:15.864Z,81.48
2022-11-05T22:53:46.087Z,81.05
2022-11-05T22:56:17.324Z,81.43
2022-11-05T22:58:47.292Z,81.21
2022-11-05T23:01:20.196Z,81.27
2022-11-05T23:03:50.735Z,81.61
2022-11-05T23:06:33.867Z,81.51
2022-11-05T23:09:16.423Z,82.00
2022-11-05T23:11:47.239Z,81.64
2022-11-05T23:14:17.212Z,81.52
2022-11-05T23:17:02.096Z,81.67
2022-11-05T23:19:44.904Z,81.47
2022-11-05T23:22:28.353Z,81.48
2022-11-05T23:24:58.104Z,81.56
2022-11-05T23:27:31.027Z,81.39
2022-11-05T23:30:01.809Z,81.47
2022-11-05T23:32:32.630Z,80.99
2022-11-05T23:35:02.601Z,81.44
2022-11-05T23:37:45.690Z,80.66
2022-11-05T23:40:16.551Z,80.77
2022-11-05T23:42:59.222Z,81.47
2022-11-05T23:45:41.620Z,81.08
2022-11-05T23:48:19.301Z,81.04
2022-11-05T23:50:52.186Z,81.24
2022-11-05T23:53:22.670Z,81.36
2022-11-05T23:55:52.888Z,81.50
2022-11-05T23:58:22.876Z,81.74
